Time;durP1;ratioP1;P1;durP2;ratioP2;P2;SDS_P1;SDS_P2;PMS_P1;PMS_P2;Temp;Humidity;BMP_temperature;BMP_pressure;BME280_temperature;BME280_humidity;BME280_pressure;Samples;Min_cycle;Max_cycle;Signal;HPM_P1;HPM_P2
2022/12/24 00:01:21;;;;;;;70.50;36.08;;;;;;;;;;5096870;28;20051;-77
2022/12/24 00:04:07;;;;;;;67.40;36.55;;;;;;;;;;5100407;28;20493;-76
2022/12/24 00:06:52;;;;;;;63.30;35.13;;;;;;;;;;5093762;28;20024;-78
2022/12/24 00:09:38;;;;;;;65.03;34.72;;;;;;;;;;5097446;28;20013;-77
2022/12/24 00:12:24;;;;;;;62.22;34.45;;;;;;;;;;5096163;28;20013;-78
2022/12/24 00:15:10;;;;;;;59.78;35.55;;;;;;;;;;5097692;28;20446;-78
2022/12/24 00:17:55;;;;;;;61.80;35.20;;;;;;;;;;5082582;28;20019;-78
2022/12/24 00:20:44;;;;;;;59.05;34.75;;;;;;;;;;5082975;28;20028;-77
2022/12/24 00:23:29;;;;;;;61.58;33.92;;;;;;;;;;5109522;28;20050;-78
2022/12/24 00:26:15;;;;;;;59.97;32.13;;;;;;;;;;5086756;28;20035;-77
2022/12/24 00:29:00;;;;;;;57.38;33.35;;;;;;;;;;5109459;28;20066;-77
2022/12/24 00:31:46;;;;;;;61.33;33.92;;;;;;;;;;5081915;28;20016;-78
2022/12/24 00:34:31;;;;;;;60.15;34.13;;;;;;;;;;5106775;28;20028;-77
2022/12/24 00:37:17;;;;;;;63.78;35.67;;;;;;;;;;5085876;28;20023;-77
2022/12/24 00:40:03;;;;;;;64.80;35.30;;;;;;;;;;5096305;28;20024;-77
2022/12/24 00:42:48;;;;;;;61.50;34.25;;;;;;;;;;5098087;28;20004;-77
2022/12/24 00:45:34;;;;;;;65.38;36.53;;;;;;;;;;5096401;28;20347;-78
2022/12/24 00:48:21;;;;;;;68.30;35.78;;;;;;;;;;5103124;28;20151;-76
2022/12/24 00:51:07;;;;;;;62.97;35.78;;;;;;;;;;5109202;28;20046;-79
2022/12/24 00:53:52;;;;;;;58.50;34.25;;;;;;;;;;5114569;28;20052;-78
2022/12/24 00:56:38;;;;;;;60.13;34.42;;;;;;;;;;5099751;28;20409;-77
2022/12/24 00:59:23;;;;;;;60.72;33.40;;;;;;;;;;5095316;28;20036;-77
2022/12/24 01:02:09;;;;;;;60.85;33.38;;;;;;;;;;5097567;28;20079;-79
2022/12/24 01:05:10;;;;;;;59.78;32.22;;;;;;;;;;5084314;28;20020;-78
2022/12/24 01:07:57;;;;;;;59.58;34.15;;;;;;;;;;5085251;28;20059;-78
2022/12/24 01:10:42;;;;;;;60.72;33.70;;;;;;;;;;5083562;28;20501;-77
2022/12/24 01:13:28;;;;;;;57.10;32.58;;;;;;;;;;5097336;28;20028;-78
2022/12/24 01:16:17;;;;;;;61.13;34.85;;;;;;;;;;5094875;28;20070;-76
2022/12/24 01:19:03;;;;;;;64.43;35.72;;;;;;;;;;5118058;28;20362;-77
2022/12/24 01:21:49;;;;;;;62.10;33.95;;;;;;;;;;5110780;28;20031;-78
2022/12/24 01:24:34;;;;;;;62.75;34.55;;;;;;;;;;5108315;28;20024;-77
2022/12/24 01:27:20;;;;;;;60.30;33.88;;;;;;;;;;5106865;28;20016;-77
2022/12/24 01:30:07;;;;;;;64.75;35.42;;;;;;;;;;5103614;28;20004;-77
2022/12/24 01:32:52;;;;;;;62.17;33.88;;;;;;;;;;5099262;28;20091;-78
2022/12/24 01:35:38;;;;;;;58.30;32.65;;;;;;;;;;5094893;28;20027;-78
2022/12/24 01:38:24;;;;;;;62.20;33.80;;;;;;;;;;5095467;28;20024;-79
2022/12/24 01:44:25;;;;;;;56.50;33.03;;;;;;;;;;5094815;28;20044;-77
2022/12/24 01:47:17;;;;;;;54.53;32.80;;;;;;;;;;5095135;28;20024;-79
2022/12/24 01:50:11;;;;;;;57.92;32.60;;;;;;;;;;5100337;28;20067;-79
2022/12/24 01:52:56;;;;;;;56.83;31.98;;;;;;;;;;5107385;28;20104;-80
2022/12/24 01:55:43;;;;;;;59.53;34.78;;;;;;;;;;5095768;28;20024;-78
2022/12/24 01:58:29;;;;;;;62.50;34.00;;;;;;;;;;5093674;28;20082;-78
2022/12/24 02:01:15;;;;;;;54.45;31.95;;;;;;;;;;5094866;28;20122;-80
2022/12/24 02:04:10;;;;;;;59.05;34.42;;;;;;;;;;5080284;28;20042;-78
2022/12/24 02:06:56;;;;;;;59.45;33.08;;;;;;;;;;5094637;28;20100;-79
2022/12/24 02:09:42;;;;;;;53.90;30.90;;;;;;;;;;5095054;28;20507;-77
2022/12/24 02:12:30;;;;;;;55.78;32.30;;;;;;;;;;5094098;28;20446;-78
2022/12/24 02:15:17;;;;;;;56.22;31.65;;;;;;;;;;5094714;28;20099;-79
2022/12/24 02:18:02;;;;;;;52.53;30.75;;;;;;;;;;5094461;28;20024;-78
2022/12/24 02:20:57;;;;;;;64.10;34.35;;;;;;;;;;5079360;28;20486;-80
2022/12/24 02:23:56;;;;;;;52.95;30.17;;;;;;;;;;5094472;28;20035;-79
2022/12/24 02:26:41;;;;;;;56.70;31.05;;;;;;;;;;5094109;28;20051;-78
2022/12/24 02:29:45;;;;;;;50.40;28.77;;;;;;;;;;5094051;28;20028;-78
2022/12/24 02:32:34;;;;;;;51.60;28.60;;;;;;;;;;5078839;28;20085;-78
2022/12/24 02:35:27;;;;;;;52.38;28.25;;;;;;;;;;5093864;28;20103;-77
2022/12/24 02:38:19;;;;;;;51.38;28.77;;;;;;;;;;5093689;28;20020;-78
2022/12/24 02:41:14;;;;;;;49.25;28.48;;;;;;;;;;5093645;28;20016;-78
2022/12/24 02:44:00;;;;;;;50.00;27.75;;;;;;;;;;5079341;28;20020;-77
2022/12/24 02:46:46;;;;;;;55.80;30.45;;;;;;;;;;5095048;28;20414;-77
2022/12/24 02:49:32;;;;;;;61.50;29.83;;;;;;;;;;5093926;28;20099;-78
2022/12/24 02:52:29;;;;;;;75.18;32.17;;;;;;;;;;5093930;28;20028;-78
2022/12/24 02:55:15;;;;;;;66.97;31.25;;;;;;;;;;5078875;28;20046;-78
2022/12/24 02:58:15;;;;;;;58.47;30.13;;;;;;;;;;5078913;28;20034;-79
2022/12/24 03:01:16;;;;;;;57.67;29.55;;;;;;;;;;5093250;28;20371;-78
2022/12/24 03:04:11;;;;;;;48.47;27.08;;;;;;;;;;5080653;28;20059;-77
2022/12/24 03:06:59;;;;;;;48.65;27.02;;;;;;;;;;5080402;28;20414;-77
2022/12/24 03:09:54;;;;;;;46.83;27.35;;;;;;;;;;5092771;28;20101;-77
2022/12/24 03:12:42;;;;;;;44.83;26.52;;;;;;;;;;5092924;28;20016;-77
2022/12/24 03:15:28;;;;;;;44.28;26.80;;;;;;;;;;5079861;28;20020;-77
2022/12/24 03:18:16;;;;;;;43.22;26.48;;;;;;;;;;5078920;28;20056;-77
2022/12/24 03:21:14;;;;;;;45.15;26.30;;;;;;;;;;5079395;28;20070;-78
2022/12/24 03:24:00;;;;;;;47.67;26.58;;;;;;;;;;5094112;28;20020;-78
2022/12/24 03:26:46;;;;;;;46.40;27.15;;;;;;;;;;5077928;28;20354;-78
2022/12/24 03:29:32;;;;;;;46.03;27.40;;;;;;;;;;5079202;28;20031;-77
2022/12/24 03:32:22;;;;;;;46.03;26.33;;;;;;;;;;5094684;28;20024;-77
2022/12/24 03:35:08;;;;;;;45.45;26.45;;;;;;;;;;5096464;28;20016;-77
2022/12/24 03:37:54;;;;;;;44.28;26.33;;;;;;;;;;5093835;28;20071;-78
2022/12/24 03:40:39;;;;;;;44.90;26.58;;;;;;;;;;5093847;28;20020;-77
2022/12/24 03:43:25;;;;;;;44.03;26.30;;;;;;;;;;5077732;28;20024;-77
2022/12/24 03:46:11;;;;;;;44.85;26.45;;;;;;;;;;5093671;28;20107;-77
2022/12/24 03:48:56;;;;;;;48.55;28.77;;;;;;;;;;5093243;28;20028;-78
2022/12/24 03:51:42;;;;;;;46.33;26.70;;;;;;;;;;5093067;28;20028;-78
2022/12/24 03:54:28;;;;;;;48.45;28.75;;;;;;;;;;5078012;28;20031;-78
2022/12/24 03:57:13;;;;;;;47.80;28.23;;;;;;;;;;5078417;28;20101;-78
2022/12/24 03:59:59;;;;;;;49.03;27.65;;;;;;;;;;5092475;28;20357;-77
2022/12/24 04:02:44;;;;;;;48.20;28.67;;;;;;;;;;5093405;28;20089;-78
2022/12/24 04:05:30;;;;;;;47.53;27.90;;;;;;;;;;5092976;28;20020;-77
2022/12/24 04:08:15;;;;;;;53.75;28.95;;;;;;;;;;5092436;28;20024;-77
2022/12/24 04:11:03;;;;;;;50.45;29.88;;;;;;;;;;5077989;28;20012;-76
2022/12/24 04:13:48;;;;;;;55.90;31.73;;;;;;;;;;5092825;28;20017;-77
2022/12/24 04:16:34;;;;;;;57.20;31.08;;;;;;;;;;5078123;28;20016;-77
2022/12/24 04:19:20;;;;;;;54.40;30.38;;;;;;;;;;5092923;28;20103;-78
2022/12/24 04:22:05;;;;;;;51.40;29.48;;;;;;;;;;5094362;28;20031;-78
2022/12/24 04:24:51;;;;;;;53.85;29.05;;;;;;;;;;5096258;28;20132;-77
2022/12/24 04:27:36;;;;;;;53.92;30.73;;;;;;;;;;5096563;28;20035;-77
2022/12/24 04:30:22;;;;;;;56.70;30.73;;;;;;;;;;5096453;28;20107;-78
2022/12/24 04:33:07;;;;;;;61.42;32.85;;;;;;;;;;5096392;28;20016;-78
2022/12/24 04:35:53;;;;;;;61.38;33.30;;;;;;;;;;5082007;28;20028;-77
2022/12/24 04:38:39;;;;;;;59.58;33.05;;;;;;;;;;5096049;28;20326;-76
2022/12/24 04:41:24;;;;;;;64.35;35.28;;;;;;;;;;5096466;28;20040;-78
2022/12/24 04:44:10;;;;;;;64.40;35.20;;;;;;;;;;5096467;28;20031;-77
2022/12/24 04:46:55;;;;;;;60.78;34.22;;;;;;;;;;5096104;28;20047;-76
2022/12/24 04:49:42;;;;;;;59.88;32.30;;;;;;;;;;5096328;28;20023;-77
2022/12/24 04:52:27;;;;;;;62.33;33.47;;;;;;;;;;5095834;28;20058;-78
2022/12/24 04:55:13;;;;;;;58.95;33.22;;;;;;;;;;5081525;28;20039;-77
2022/12/24 04:57:58;;;;;;;59.10;32.42;;;;;;;;;;5095769;28;20086;-77
2022/12/24 05:00:44;;;;;;;58.13;31.52;;;;;;;;;;5075563;28;20049;-77
2022/12/24 05:03:30;;;;;;;59.08;32.53;;;;;;;;;;5080016;28;20375;-77
2022/12/24 05:06:17;;;;;;;61.95;35.20;;;;;;;;;;5095780;28;20034;-77
2022/12/24 05:09:03;;;;;;;62.58;32.10;;;;;;;;;;5094900;28;20016;-78
2022/12/24 05:11:48;;;;;;;58.17;32.78;;;;;;;;;;5080964;28;20020;-78
2022/12/24 05:14:34;;;;;;;61.13;33.00;;;;;;;;;;5095333;28;20067;-77
2022/12/24 05:17:20;;;;;;;58.75;33.45;;;;;;;;;;5095392;28;20468;-77
2022/12/24 05:20:05;;;;;;;69.45;36.13;;;;;;;;;;5095411;28;20081;-78
2022/12/24 05:26:23;;;;;;;70.47;36.05;;;;;;;;;;5034340;28;20030;-77
2022/12/24 05:29:11;;;;;;;68.60;36.30;;;;;;;;;;5076646;28;20059;-77
2022/12/24 05:31:56;;;;;;;66.40;36.42;;;;;;;;;;5095199;28;20373;-77
2022/12/24 05:34:42;;;;;;;65.10;36.15;;;;;;;;;;5079867;28;20445;-77
2022/12/24 05:37:27;;;;;;;65.10;36.10;;;;;;;;;;5080321;28;20545;-78
2022/12/24 05:40:13;;;;;;;70.95;35.35;;;;;;;;;;5095169;28;20024;-77
2022/12/24 05:42:58;;;;;;;67.70;34.40;;;;;;;;;;5094827;28;20012;-77
2022/12/24 05:45:44;;;;;;;58.50;34.13;;;;;;;;;;5095409;28;20020;-78
2022/12/24 05:48:30;;;;;;;64.20;34.50;;;;;;;;;;5080814;28;20031;-77
2022/12/24 05:51:18;;;;;;;59.20;32.78;;;;;;;;;;5094766;28;20094;-78
2022/12/24 05:54:04;;;;;;;64.47;33.65;;;;;;;;;;5081722;28;20020;-78
2022/12/24 05:56:49;;;;;;;58.58;32.38;;;;;;;;;;5095833;28;20027;-78
2022/12/24 05:59:35;;;;;;;63.88;32.55;;;;;;;;;;5082020;28;20059;-77
2022/12/24 06:02:20;;;;;;;58.13;31.17;;;;;;;;;;5092678;28;20438;-77
2022/12/24 06:05:06;;;;;;;53.55;30.27;;;;;;;;;;5080433;28;20379;-77
2022/12/24 06:07:51;;;;;;;59.10;31.35;;;;;;;;;;5081735;28;20407;-78
2022/12/24 06:10:37;;;;;;;53.17;30.25;;;;;;;;;;5080398;28;20020;-78
2022/12/24 06:13:23;;;;;;;56.60;30.52;;;;;;;;;;5095498;28;20099;-77
2022/12/24 06:16:10;;;;;;;56.40;31.02;;;;;;;;;;5084076;28;20115;-77
2022/12/24 06:18:56;;;;;;;56.78;30.80;;;;;;;;;;5102085;28;20024;-76
2022/12/24 06:21:42;;;;;;;61.42;33.67;;;;;;;;;;5115120;28;20020;-77
2022/12/24 06:24:27;;;;;;;62.63;32.35;;;;;;;;;;5116027;28;20121;-76
2022/12/24 06:27:13;;;;;;;54.65;30.20;;;;;;;;;;5113028;28;20039;-77
2022/12/24 06:29:58;;;;;;;53.88;31.30;;;;;;;;;;5109932;28;20034;-76
2022/12/24 06:32:44;;;;;;;53.60;29.65;;;;;;;;;;5116103;28;20020;-75
2022/12/24 06:35:30;;;;;;;52.75;29.52;;;;;;;;;;5116039;28;20000;-75
2022/12/24 06:38:16;;;;;;;49.92;27.73;;;;;;;;;;5099458;28;20016;-76
2022/12/24 06:41:04;;;;;;;46.90;27.58;;;;;;;;;;5111823;28;20027;-77
2022/12/24 06:43:51;;;;;;;45.15;26.25;;;;;;;;;;5103318;28;20152;-77
2022/12/24 06:46:36;;;;;;;48.80;26.80;;;;;;;;;;5097322;28;20028;-77
2022/12/24 06:49:22;;;;;;;48.75;27.95;;;;;;;;;;5097676;28;20024;-76
2022/12/24 06:52:07;;;;;;;48.72;28.15;;;;;;;;;;5098253;28;20020;-79
2022/12/24 06:54:53;;;;;;;51.50;28.02;;;;;;;;;;5099730;28;20063;-76
2022/12/24 06:57:38;;;;;;;51.97;27.73;;;;;;;;;;5100155;28;20077;-78
2022/12/24 07:00:24;;;;;;;49.10;29.02;;;;;;;;;;5105665;28;20026;-76
2022/12/24 07:03:10;;;;;;;52.78;29.30;;;;;;;;;;5097992;28;20016;-74
2022/12/24 07:05:56;;;;;;;54.55;29.67;;;;;;;;;;5101067;28;20043;-78
2022/12/24 07:08:41;;;;;;;49.67;29.05;;;;;;;;;;5113547;28;20023;-77
2022/12/24 07:11:27;;;;;;;53.28;29.42;;;;;;;;;;5097020;28;20024;-76
2022/12/24 07:14:12;;;;;;;50.22;29.42;;;;;;;;;;5109662;28;20032;-76
2022/12/24 07:16:58;;;;;;;48.65;28.27;;;;;;;;;;5111207;28;20017;-77
2022/12/24 07:19:44;;;;;;;51.92;30.48;;;;;;;;;;5097064;28;20413;-78
2022/12/24 07:22:29;;;;;;;52.28;30.50;;;;;;;;;;5114582;28;20017;-77
2022/12/24 07:25:15;;;;;;;50.33;29.80;;;;;;;;;;5114301;28;20088;-77
2022/12/24 07:28:01;;;;;;;50.08;28.50;;;;;;;;;;5089063;28;20051;-78
2022/12/24 07:30:47;;;;;;;47.90;28.58;;;;;;;;;;5096503;28;20017;-79
2022/12/24 07:33:32;;;;;;;50.30;29.63;;;;;;;;;;5094355;28;20020;-78
2022/12/24 07:36:19;;;;;;;53.20;30.63;;;;;;;;;;5072452;28;20075;-76
2022/12/24 07:39:05;;;;;;;46.95;28.10;;;;;;;;;;5093469;28;20048;-77
2022/12/24 07:41:50;;;;;;;46.90;27.90;;;;;;;;;;5093778;28;20496;-77
2022/12/24 07:44:36;;;;;;;44.28;27.30;;;;;;;;;;5093223;28;20024;-77
2022/12/24 07:47:21;;;;;;;51.08;28.85;;;;;;;;;;5093216;28;20422;-76
2022/12/24 07:50:07;;;;;;;53.72;31.95;;;;;;;;;;5093018;28;20024;-78
2022/12/24 07:52:53;;;;;;;53.33;32.42;;;;;;;;;;5092619;28;20350;-77
2022/12/24 07:55:38;;;;;;;58.10;32.10;;;;;;;;;;5093734;28;20174;-79
2022/12/24 07:58:24;;;;;;;59.03;31.60;;;;;;;;;;5097807;28;20024;-79
2022/12/24 08:01:10;;;;;;;57.03;31.30;;;;;;;;;;5083826;28;20048;-79
2022/12/24 08:03:55;;;;;;;55.40;31.50;;;;;;;;;;5082572;28;20027;-78
2022/12/24 08:06:41;;;;;;;55.97;32.22;;;;;;;;;;5083469;28;20012;-78
2022/12/24 08:09:27;;;;;;;62.92;33.35;;;;;;;;;;5082980;28;20020;-79
2022/12/24 08:12:12;;;;;;;65.30;35.55;;;;;;;;;;5088870;28;20020;-78
2022/12/24 08:14:58;;;;;;;61.13;31.92;;;;;;;;;;5084026;28;20093;-79
2022/12/24 08:17:44;;;;;;;53.42;29.60;;;;;;;;;;5083717;28;20024;-79
2022/12/24 08:20:29;;;;;;;54.20;30.02;;;;;;;;;;5097088;28;20450;-78
2022/12/24 08:23:15;;;;;;;52.60;29.77;;;;;;;;;;5096682;28;20016;-78
2022/12/24 08:26:01;;;;;;;54.38;31.98;;;;;;;;;;5096530;28;20394;-78
2022/12/24 08:28:46;;;;;;;55.78;31.77;;;;;;;;;;5098380;28;20016;-77
2022/12/24 08:31:38;;;;;;;56.72;30.17;;;;;;;;;;5082766;28;20434;-77
2022/12/24 08:34:24;;;;;;;53.25;30.45;;;;;;;;;;5095913;28;20024;-78
2022/12/24 08:37:09;;;;;;;49.40;28.60;;;;;;;;;;5096454;28;20372;-78
2022/12/24 08:39:55;;;;;;;50.17;28.67;;;;;;;;;;5096334;28;20101;-79
2022/12/24 08:42:40;;;;;;;51.15;29.00;;;;;;;;;;5096539;28;20148;-78
2022/12/24 08:45:26;;;;;;;59.92;33.22;;;;;;;;;;5100042;28;20039;-78
2022/12/24 08:48:11;;;;;;;57.33;33.00;;;;;;;;;;5099573;28;20138;-79
2022/12/24 08:50:57;;;;;;;48.00;28.88;;;;;;;;;;5099138;28;20024;-79
2022/12/24 08:53:43;;;;;;;48.35;27.95;;;;;;;;;;5096782;28;20024;-78
2022/12/24 08:56:28;;;;;;;61.22;35.55;;;;;;;;;;5095961;28;20038;-78
2022/12/24 08:59:14;;;;;;;48.88;29.63;;;;;;;;;;5095807;28;20028;-79
2022/12/24 09:02:00;;;;;;;47.97;28.60;;;;;;;;;;5096066;28;20044;-78
2022/12/24 09:04:46;;;;;;;48.33;30.27;;;;;;;;;;5096393;28;20169;-79
2022/12/24 09:07:31;;;;;;;45.63;27.98;;;;;;;;;;5095147;28;20438;-78
2022/12/24 09:10:17;;;;;;;45.03;26.13;;;;;;;;;;5096814;28;20024;-79
2022/12/24 09:13:03;;;;;;;37.40;23.67;;;;;;;;;;5096312;28;20012;-78
2022/12/24 09:15:52;;;;;;;41.10;25.25;;;;;;;;;;5095598;28;20085;-77
2022/12/24 09:18:38;;;;;;;43.13;25.63;;;;;;;;;;5080756;28;20070;-79
2022/12/24 09:21:23;;;;;;;42.17;24.42;;;;;;;;;;5095291;28;20454;-79
2022/12/24 09:24:09;;;;;;;44.42;27.98;;;;;;;;;;5095393;28;20419;-74
2022/12/24 09:26:54;;;;;;;50.80;32.97;;;;;;;;;;5094893;28;20434;-73
2022/12/24 09:29:40;;;;;;;41.67;26.35;;;;;;;;;;5095710;28;20020;-81
2022/12/24 09:32:26;;;;;;;41.13;26.30;;;;;;;;;;5080641;28;20107;-82
2022/12/24 09:35:11;;;;;;;41.65;27.15;;;;;;;;;;5096016;28;20024;-71
2022/12/24 09:38:03;;;;;;;43.42;25.98;;;;;;;;;;5094956;28;20434;-80
2022/12/24 09:40:49;;;;;;;39.22;25.38;;;;;;;;;;5096492;28;20097;-79
2022/12/24 09:43:35;;;;;;;45.10;27.52;;;;;;;;;;5116691;28;20019;-79
2022/12/24 09:46:24;;;;;;;42.13;25.58;;;;;;;;;;5099463;28;20032;-79
2022/12/24 09:49:13;;;;;;;45.30;26.73;;;;;;;;;;5096213;28;20048;-78
2022/12/24 09:52:04;;;;;;;40.45;25.08;;;;;;;;;;5081548;28;20027;-79
2022/12/24 09:54:55;;;;;;;39.25;24.15;;;;;;;;;;5079822;28;20035;-77
2022/12/24 09:57:40;;;;;;;40.25;25.13;;;;;;;;;;5080985;28;20080;-77
2022/12/24 10:00:30;;;;;;;38.65;24.15;;;;;;;;;;5095456;28;20097;-78
2022/12/24 10:03:17;;;;;;;40.95;25.38;;;;;;;;;;5096407;28;20046;-78
2022/12/24 10:06:11;;;;;;;45.20;26.25;;;;;;;;;;5099137;28;20442;-79
2022/12/24 10:09:04;;;;;;;46.95;26.00;;;;;;;;;;5106617;28;20008;-79
2022/12/24 10:12:02;;;;;;;37.65;24.30;;;;;;;;;;5095282;28;20031;-78
2022/12/24 10:14:59;;;;;;;38.88;25.30;;;;;;;;;;5094904;28;20035;-78
2022/12/24 10:17:56;;;;;;;36.80;22.58;;;;;;;;;;5094974;28;20028;-76
2022/12/24 10:21:01;;;;;;;37.33;22.70;;;;;;;;;;5079006;28;20103;-78
2022/12/24 10:23:49;;;;;;;39.65;24.70;;;;;;;;;;5095400;28;20024;-78
2022/12/24 10:26:45;;;;;;;36.50;22.73;;;;;;;;;;5094410;28;20073;-77
2022/12/24 10:29:35;;;;;;;34.35;21.90;;;;;;;;;;5094615;28;20103;-78
2022/12/24 10:32:24;;;;;;;37.80;22.42;;;;;;;;;;5094305;28;20012;-78
2022/12/24 10:35:13;;;;;;;37.13;23.75;;;;;;;;;;5093721;28;20059;-78
2022/12/24 10:37:59;;;;;;;33.97;22.35;;;;;;;;;;5079107;28;20107;-78
2022/12/24 10:40:46;;;;;;;32.22;21.38;;;;;;;;;;5079095;28;20057;-78
2022/12/24 10:43:32;;;;;;;32.55;21.15;;;;;;;;;;5094806;28;20059;-78
2022/12/24 10:46:20;;;;;;;40.33;25.15;;;;;;;;;;5080630;28;20081;-79
2022/12/24 10:49:07;;;;;;;42.05;26.08;;;;;;;;;;5079929;28;20054;-78
2022/12/24 10:51:54;;;;;;;42.75;25.65;;;;;;;;;;5080880;28;20099;-77
2022/12/24 10:54:59;;;;;;;35.53;22.60;;;;;;;;;;5095122;28;20089;-78
2022/12/24 10:57:46;;;;;;;39.70;25.35;;;;;;;;;;5094227;28;20038;-77
2022/12/24 11:00:32;;;;;;;38.50;24.10;;;;;;;;;;5079091;28;20027;-78
2022/12/24 11:03:18;;;;;;;38.42;23.95;;;;;;;;;;5094452;28;20027;-78
2022/12/24 11:06:06;;;;;;;37.05;23.70;;;;;;;;;;5094211;28;20024;-78
2022/12/24 11:08:52;;;;;;;37.67;22.23;;;;;;;;;;5079856;28;20016;-78
2022/12/24 11:11:37;;;;;;;36.42;23.60;;;;;;;;;;5094005;28;20020;-78
2022/12/24 11:14:24;;;;;;;36.50;23.80;;;;;;;;;;5093255;28;20024;-78
2022/12/24 11:17:18;;;;;;;36.47;22.80;;;;;;;;;;5079959;28;20020;-78
2022/12/24 11:20:06;;;;;;;36.88;23.73;;;;;;;;;;5093689;28;20028;-78
2022/12/24 11:22:51;;;;;;;36.22;23.73;;;;;;;;;;5078418;28;20084;-79
2022/12/24 11:25:39;;;;;;;33.00;21.60;;;;;;;;;;5078744;28;20024;-77
2022/12/24 11:28:30;;;;;;;37.88;23.10;;;;;;;;;;5080529;28;20426;-78
2022/12/24 11:31:19;;;;;;;36.97;22.55;;;;;;;;;;5093139;28;20032;-78
2022/12/24 11:34:21;;;;;;;32.70;21.63;;;;;;;;;;5079488;28;20009;-79
2022/12/24 11:37:10;;;;;;;37.42;22.23;;;;;;;;;;5080662;28;20027;-78
2022/12/24 11:39:58;;;;;;;37.40;21.75;;;;;;;;;;5093686;28;20418;-78
2022/12/24 11:42:44;;;;;;;36.50;22.13;;;;;;;;;;5079381;28;20107;-78
2022/12/24 11:45:31;;;;;;;46.10;28.35;;;;;;;;;;5078557;28;20085;-78
2022/12/24 11:48:25;;;;;;;42.13;26.02;;;;;;;;;;5080854;28;20354;-78
2022/12/24 11:51:24;;;;;;;42.33;23.98;;;;;;;;;;5093457;28;20028;-78
2022/12/24 11:54:23;;;;;;;39.17;24.63;;;;;;;;;;5093559;28;20028;-78
2022/12/24 11:57:10;;;;;;;42.08;23.83;;;;;;;;;;5079934;28;20105;-79
2022/12/24 11:59:55;;;;;;;41.45;25.38;;;;;;;;;;5080230;28;20015;-78
2022/12/24 12:02:42;;;;;;;61.88;30.98;;;;;;;;;;5072651;28;20048;-79
2022/12/24 12:05:31;;;;;;;61.60;34.17;;;;;;;;;;5073673;28;20401;-79
2022/12/24 12:08:18;;;;;;;39.45;23.63;;;;;;;;;;5058853;28;20017;-79
2022/12/24 12:11:10;;;;;;;36.95;23.83;;;;;;;;;;5059485;28;20039;-79
2022/12/24 12:13:57;;;;;;;43.38;26.98;;;;;;;;;;5059047;28;20028;-77
2022/12/24 12:17:03;;;;;;;38.30;24.67;;;;;;;;;;5073261;28;20367;-78
2022/12/24 12:19:54;;;;;;;39.90;24.45;;;;;;;;;;5073845;28;20028;-79
2022/12/24 12:22:48;;;;;;;42.63;25.73;;;;;;;;;;5073075;28;20024;-78
2022/12/24 12:25:34;;;;;;;46.67;26.23;;;;;;;;;;5074061;28;20070;-78
2022/12/24 12:28:22;;;;;;;37.28;23.52;;;;;;;;;;5073874;28;20077;-78
2022/12/24 12:31:07;;;;;;;32.75;21.90;;;;;;;;;;5073596;28;20029;-79
2022/12/24 12:34:05;;;;;;;37.28;23.63;;;;;;;;;;5074238;28;20103;-78
2022/12/24 12:36:53;;;;;;;34.30;20.98;;;;;;;;;;5073959;28;20060;-78
2022/12/24 12:39:38;;;;;;;33.22;20.85;;;;;;;;;;5072842;28;20086;-78
2022/12/24 12:42:27;;;;;;;36.45;23.42;;;;;;;;;;5073399;28;20366;-80
2022/12/24 12:45:26;;;;;;;35.03;22.10;;;;;;;;;;5077357;28;20047;-79
2022/12/24 12:48:35;;;;;;;37.50;23.70;;;;;;;;;;5077154;28;20141;-78
2022/12/24 12:51:24;;;;;;;35.17;21.75;;;;;;;;;;5076630;28;20024;-78
2022/12/24 12:54:16;;;;;;;35.70;21.70;;;;;;;;;;5076946;28;20024;-79
2022/12/24 12:57:10;;;;;;;35.78;22.67;;;;;;;;;;5077199;28;20027;-78
2022/12/24 13:00:01;;;;;;;35.55;22.77;;;;;;;;;;5077237;28;20020;-78
2022/12/24 13:03:00;;;;;;;36.90;23.15;;;;;;;;;;5095062;28;20412;-78
2022/12/24 13:05:52;;;;;;;35.88;22.25;;;;;;;;;;5095643;28;20115;-77
2022/12/24 13:08:56;;;;;;;35.90;23.27;;;;;;;;;;5095462;28;20020;-79
2022/12/24 13:12:00;;;;;;;36.72;23.95;;;;;;;;;;5095515;28;20020;-79
2022/12/24 13:14:52;;;;;;;38.80;23.88;;;;;;;;;;5081780;28;20016;-78
2022/12/24 13:17:41;;;;;;;38.40;22.83;;;;;;;;;;5095016;28;20024;-79
2022/12/24 13:20:39;;;;;;;37.90;23.77;;;;;;;;;;5094717;28;20088;-79
2022/12/24 13:23:25;;;;;;;39.70;23.35;;;;;;;;;;5094730;28;20020;-79
2022/12/24 13:26:12;;;;;;;36.55;22.55;;;;;;;;;;5096384;28;20028;-78
2022/12/24 13:29:28;;;;;;;32.33;21.02;;;;;;;;;;5095579;28;20020;-80
2022/12/24 13:32:19;;;;;;;34.30;21.17;;;;;;;;;;5094843;28;20081;-78
2022/12/24 13:35:20;;;;;;;35.25;21.33;;;;;;;;;;5095001;28;20020;-78
2022/12/24 13:38:39;;;;;;;32.83;20.95;;;;;;;;;;5095535;28;20032;-79
2022/12/24 13:41:30;;;;;;;36.08;21.77;;;;;;;;;;5033588;28;20078;-78
2022/12/24 13:44:17;;;;;;;42.38;23.48;;;;;;;;;;5094534;28;20055;-78
2022/12/24 13:47:14;;;;;;;50.58;28.05;;;;;;;;;;5080792;28;20016;-78
2022/12/24 13:50:13;;;;;;;45.63;27.63;;;;;;;;;;5094751;28;20028;-79
2022/12/24 13:52:58;;;;;;;44.38;28.10;;;;;;;;;;5094822;28;20038;-78
2022/12/24 13:55:52;;;;;;;47.60;28.40;;;;;;;;;;5094323;28;20043;-79
2022/12/24 13:58:43;;;;;;;42.65;26.70;;;;;;;;;;5094393;28;20034;-77
2022/12/24 14:01:33;;;;;;;41.40;24.75;;;;;;;;;;5084485;28;20051;-79
2022/12/24 14:04:28;;;;;;;36.38;22.17;;;;;;;;;;5075808;28;20031;-78
2022/12/24 14:07:17;;;;;;;36.83;22.00;;;;;;;;;;5075234;28;20044;-78
2022/12/24 14:10:05;;;;;;;35.25;21.90;;;;;;;;;;5067694;28;20017;-77
2022/12/24 14:12:51;;;;;;;35.45;20.55;;;;;;;;;;5081721;28;20107;-79
2022/12/24 14:15:43;;;;;;;33.20;20.20;;;;;;;;;;5077265;28;20056;-78
2022/12/24 14:18:32;;;;;;;32.33;20.25;;;;;;;;;;5061342;28;20063;-78
2022/12/24 14:21:23;;;;;;;31.05;19.70;;;;;;;;;;5051822;28;20117;-78
2022/12/24 14:24:14;;;;;;;33.60;20.58;;;;;;;;;;5076914;28;20029;-79
2022/12/24 14:27:26;;;;;;;31.95;19.73;;;;;;;;;;5075050;28;20031;-79
2022/12/24 14:30:18;;;;;;;29.05;19.63;;;;;;;;;;5075496;28;20052;-78
2022/12/24 14:33:04;;;;;;;34.05;19.00;;;;;;;;;;5074265;28;20021;-78
2022/12/24 14:35:49;;;;;;;33.25;19.48;;;;;;;;;;5074493;28;20107;-79
2022/12/24 14:38:35;;;;;;;32.03;19.42;;;;;;;;;;5074955;28;20039;-78
2022/12/24 14:41:27;;;;;;;33.35;21.15;;;;;;;;;;5074520;28;20035;-79
2022/12/24 14:44:12;;;;;;;31.23;19.60;;;;;;;;;;5076539;28;20021;-79
2022/12/24 14:47:03;;;;;;;31.00;19.95;;;;;;;;;;5088759;28;20020;-78
2022/12/24 14:49:59;;;;;;;32.70;19.67;;;;;;;;;;5070136;28;20057;-80
2022/12/24 14:53:03;;;;;;;30.58;18.05;;;;;;;;;;5074374;28;20020;-79
2022/12/24 14:55:49;;;;;;;27.15;16.42;;;;;;;;;;5074500;28;20021;-78
2022/12/24 14:58:35;;;;;;;25.75;16.63;;;;;;;;;;5075111;28;20050;-79
2022/12/24 15:01:22;;;;;;;25.67;14.88;;;;;;;;;;5066466;28;20052;-78
2022/12/24 15:04:08;;;;;;;20.48;12.45;;;;;;;;;;5094914;28;20107;-79
2022/12/24 15:06:55;;;;;;;20.88;12.95;;;;;;;;;;5096429;28;20457;-78
2022/12/24 15:09:42;;;;;;;22.42;13.35;;;;;;;;;;5100003;28;20016;-77
2022/12/24 15:12:28;;;;;;;21.05;12.65;;;;;;;;;;5110799;28;20034;-78
2022/12/24 15:15:15;;;;;;;18.77;11.43;;;;;;;;;;5096239;28;20034;-78
2022/12/24 15:18:02;;;;;;;18.75;11.77;;;;;;;;;;5084858;28;20027;-79
2022/12/24 15:20:50;;;;;;;18.27;11.57;;;;;;;;;;5096706;28;20434;-78
2022/12/24 15:23:35;;;;;;;21.77;12.95;;;;;;;;;;5079598;28;20118;-77
2022/12/24 15:26:24;;;;;;;17.17;10.93;;;;;;;;;;5094064;28;20020;-77
2022/12/24 15:29:16;;;;;;;13.57;9.15;;;;;;;;;;5078983;28;20028;-78
2022/12/24 15:32:04;;;;;;;14.25;9.15;;;;;;;;;;5077939;28;20435;-78
2022/12/24 15:34:54;;;;;;;13.75;10.07;;;;;;;;;;5093290;28;20465;-79
2022/12/24 15:37:40;;;;;;;14.75;9.68;;;;;;;;;;5083608;28;20032;-77
2022/12/24 15:40:26;;;;;;;16.27;10.15;;;;;;;;;;5109549;28;20051;-79
2022/12/24 15:43:12;;;;;;;36.45;21.95;;;;;;;;;;5084439;28;20032;-79
2022/12/24 15:45:57;;;;;;;17.10;11.52;;;;;;;;;;5100150;28;20126;-78
2022/12/24 15:48:43;;;;;;;15.27;10.13;;;;;;;;;;5096561;28;20038;-81
2022/12/24 15:51:32;;;;;;;21.15;12.75;;;;;;;;;;5093356;28;20022;-79
2022/12/24 15:54:20;;;;;;;33.25;21.30;;;;;;;;;;5095165;28;20512;-78
2022/12/24 15:57:24;;;;;;;37.88;22.80;;;;;;;;;;5079140;28;20098;-77
2022/12/24 16:00:19;;;;;;;21.67;12.63;;;;;;;;;;5078957;28;20366;-79
2022/12/24 16:03:19;;;;;;;17.25;11.45;;;;;;;;;;5072406;28;20382;-78
2022/12/24 16:06:06;;;;;;;23.20;14.48;;;;;;;;;;5073221;28;20450;-78
2022/12/24 16:08:53;;;;;;;17.50;11.30;;;;;;;;;;5072529;28;20051;-79
2022/12/24 16:11:39;;;;;;;19.00;13.43;;;;;;;;;;5072424;28;20074;-77
2022/12/24 16:14:25;;;;;;;17.20;11.68;;;;;;;;;;5072660;28;20492;-79
2022/12/24 16:17:18;;;;;;;18.75;12.45;;;;;;;;;;5062205;28;20021;-78
2022/12/24 16:20:06;;;;;;;19.17;13.07;;;;;;;;;;5076376;28;20043;-78
2022/12/24 16:22:51;;;;;;;17.48;12.27;;;;;;;;;;5076278;28;20032;-76
2022/12/24 16:25:37;;;;;;;21.73;12.85;;;;;;;;;;5077122;28;20063;-77